Terminal Aerodrome Forecast
Issued by NWS

Home | Current Version | Previous Version | Text Only | Print | Product List | Glossary On
Versions: 1 2 3 4 5 6 7 8 9 10 11 12 13 14 15 16 17 18 19
676
FTUS43 KMPX 230542
TAFRNH
TAF
KRNH 230542Z 2306/2406 34012G17KT P6SM OVC015
     FM231000 36008KT P6SM BKN180
     FM231900 02011KT P6SM OVC100
     FM240000 02014G22KT P6SM OVC050=

USA.gov is the U.S. government's official web portal to all federal, state and local government web resources and services.